sensor_id;sensor_type;location;lat;lon;timestamp;pressure;altitude;pressure_sealevel;temperature;humidity
16194;BME280;8204;53.582;10.080;2023-05-21T00:00:11;101866.28;;;15.79;100.00
16194;BME280;8204;53.582;10.080;2023-05-21T00:02:40;101874.69;;;15.74;100.00
16194;BME280;8204;53.582;10.080;2023-05-21T00:05:09;101866.09;;;15.72;100.00
16194;BME280;8204;53.582;10.080;2023-05-21T00:07:40;101857.00;;;15.67;100.00
16194;BME280;8204;53.582;10.080;2023-05-21T00:10:10;101854.84;;;15.62;100.00
16194;BME280;8204;53.582;10.080;2023-05-21T00:12:41;101856.00;;;15.60;100.00
16194;BME280;8204;53.582;10.080;2023-05-21T00:15:10;101852.88;;;15.56;100.00
16194;BME280;8204;53.582;10.080;2023-05-21T00:17:39;101846.91;;;15.54;100.00
16194;BME280;8204;53.582;10.080;2023-05-21T00:20:12;101849.22;;;15.49;100.00
16194;BME280;8204;53.582;10.080;2023-05-21T00:22:42;101851.19;;;15.47;100.00
16194;BME280;8204;53.582;10.080;2023-05-21T00:25:11;101838.97;;;15.46;100.00
16194;BME280;8204;53.582;10.080;2023-05-21T00:27:42;101841.63;;;15.46;100.00
16194;BME280;8204;53.582;10.080;2023-05-21T00:30:11;101848.72;;;15.46;100.00
16194;BME280;8204;53.582;10.080;2023-05-21T00:32:41;101832.38;;;15.42;100.00
16194;BME280;8204;53.582;10.080;2023-05-21T00:35:09;101837.00;;;15.40;100.00
16194;BME280;8204;53.582;10.080;2023-05-21T00:37:38;101835.34;;;15.39;100.00
16194;BME280;8204;53.582;10.080;2023-05-21T00:40:09;101835.84;;;15.35;100.00
16194;BME280;8204;53.582;10.080;2023-05-21T00:42:38;101829.88;;;15.33;100.00
16194;BME280;8204;53.582;10.080;2023-05-21T00:45:09;101825.59;;;15.32;100.00
16194;BME280;8204;53.582;10.080;2023-05-21T00:47:40;101833.00;;;15.29;100.00
16194;BME280;8204;53.582;10.080;2023-05-21T00:50:10;101832.34;;;15.27;100.00
16194;BME280;8204;53.582;10.080;2023-05-21T00:52:41;101835.81;;;15.27;100.00
16194;BME280;8204;53.582;10.080;2023-05-21T00:55:11;101825.44;;;15.26;100.00
16194;BME280;8204;53.582;10.080;2023-05-21T00:57:40;101831.97;;;15.22;100.00
16194;BME280;8204;53.582;10.080;2023-05-21T01:00:14;101825.03;;;15.21;100.00
16194;BME280;8204;53.582;10.080;2023-05-21T01:02:43;101817.44;;;15.18;100.00
16194;BME280;8204;53.582;10.080;2023-05-21T01:05:11;101822.06;;;15.16;100.00
16194;BME280;8204;53.582;10.080;2023-05-21T01:07:41;101816.44;;;15.11;100.00
16194;BME280;8204;53.582;10.080;2023-05-21T01:10:10;101813.97;;;15.09;100.00
16194;BME280;8204;53.582;10.080;2023-05-21T01:12:41;101808.84;;;15.08;100.00
16194;BME280;8204;53.582;10.080;2023-05-21T01:15:14;101809.81;;;15.07;100.00
16194;BME280;8204;53.582;10.080;2023-05-21T01:17:43;101815.09;;;15.07;100.00
16194;BME280;8204;53.582;10.080;2023-05-21T01:20:14;101812.47;;;15.07;100.00
16194;BME280;8204;53.582;10.080;2023-05-21T01:22:52;101812.47;;;14.99;100.00
16194;BME280;8204;53.582;10.080;2023-05-21T01:25:21;101814.44;;;14.97;100.00
16194;BME280;8204;53.582;10.080;2023-05-21T01:27:51;101808.66;;;15.01;100.00
16194;BME280;8204;53.582;10.080;2023-05-21T01:30:20;101811.44;;;15.00;100.00
16194;BME280;8204;53.582;10.080;2023-05-21T01:32:55;101805.53;;;14.98;100.00
16194;BME280;8204;53.582;10.080;2023-05-21T01:35:26;101802.72;;;14.99;100.00
16194;BME280;8204;53.582;10.080;2023-05-21T01:38:05;101805.53;;;14.98;100.00
16194;BME280;8204;53.582;10.080;2023-05-21T01:40:40;101798.59;;;14.97;100.00
16194;BME280;8204;53.582;10.080;2023-05-21T01:43:13;101800.25;;;14.98;100.00
16194;BME280;8204;53.582;10.080;2023-05-21T01:45:43;101799.56;;;14.96;100.00
16194;BME280;8204;53.582;10.080;2023-05-21T01:48:13;101790.84;;;14.95;100.00
16194;BME280;8204;53.582;10.080;2023-05-21T01:50:47;101797.41;;;14.91;100.00
16194;BME280;8204;53.582;10.080;2023-05-21T01:53:20;101790.63;;;14.89;100.00
16194;BME280;8204;53.582;10.080;2023-05-21T01:55:49;101791.50;;;14.89;100.00
16194;BME280;8204;53.582;10.080;2023-05-21T01:58:19;101783.72;;;14.88;100.00
16194;BME280;8204;53.582;10.080;2023-05-21T02:00:49;101788.97;;;14.88;100.00
16194;BME280;8204;53.582;10.080;2023-05-21T02:03:19;101778.44;;;14.88;100.00
16194;BME280;8204;53.582;10.080;2023-05-21T02:05:48;101775.78;;;14.88;100.00
16194;BME280;8204;53.582;10.080;2023-05-21T02:08:17;101783.41;;;14.91;100.00
16194;BME280;8204;53.582;10.080;2023-05-21T02:10:48;101783.41;;;14.91;100.00
16194;BME280;8204;53.582;10.080;2023-05-21T02:13:17;101781.06;;;14.88;100.00
16194;BME280;8204;53.582;10.080;2023-05-21T02:15:47;101783.88;;;14.86;100.00
16194;BME280;8204;53.582;10.080;2023-05-21T02:18:16;101778.44;;;14.88;100.00
16194;BME280;8204;53.582;10.080;2023-05-21T02:20:46;101779.41;;;14.87;100.00
16194;BME280;8204;53.582;10.080;2023-05-21T02:23:15;101772.16;;;14.89;100.00
16194;BME280;8204;53.582;10.080;2023-05-21T02:25:43;101775.16;;;14.86;100.00
16194;BME280;8204;53.582;10.080;2023-05-21T02:28:15;101769.03;;;14.85;100.00
16194;BME280;8204;53.582;10.080;2023-05-21T02:30:44;101765.72;;;14.83;100.00
16194;BME280;8204;53.582;10.080;2023-05-21T02:33:14;101759.63;;;14.83;100.00
16194;BME280;8204;53.582;10.080;2023-05-21T02:35:44;101758.31;;;14.79;100.00
16194;BME280;8204;53.582;10.080;2023-05-21T02:38:13;101754.00;;;14.78;100.00
16194;BME280;8204;53.582;10.080;2023-05-21T02:40:44;101751.69;;;14.75;100.00
16194;BME280;8204;53.582;10.080;2023-05-21T02:43:15;101744.41;;;14.69;100.00
16194;BME280;8204;53.582;10.080;2023-05-21T02:45:45;101738.44;;;14.67;100.00
16194;BME280;8204;53.582;10.080;2023-05-21T02:48:14;101743.25;;;14.63;100.00
16194;BME280;8204;53.582;10.080;2023-05-21T02:50:43;101734.66;;;14.61;100.00
16194;BME280;8204;53.582;10.080;2023-05-21T02:53:12;101736.13;;;14.56;100.00
16194;BME280;8204;53.582;10.080;2023-05-21T02:55:41;101734.63;;;14.54;100.00
16194;BME280;8204;53.582;10.080;2023-05-21T02:58:10;101729.53;;;14.52;100.00
16194;BME280;8204;53.582;10.080;2023-05-21T03:00:42;101721.91;;;14.49;100.00
16194;BME280;8204;53.582;10.080;2023-05-21T03:03:11;101725.88;;;14.45;100.00
16194;BME280;8204;53.582;10.080;2023-05-21T03:05:39;101714.34;;;14.46;100.00
16194;BME280;8204;53.582;10.080;2023-05-21T03:08:08;101708.41;;;14.44;100.00
16194;BME280;8204;53.582;10.080;2023-05-21T03:10:37;101702.44;;;14.42;100.00
16194;BME280;8204;53.582;10.080;2023-05-21T03:13:06;101707.72;;;14.42;100.00
16194;BME280;8204;53.582;10.080;2023-05-21T03:15:35;101711.66;;;14.38;100.00
16194;BME280;8204;53.582;10.080;2023-05-21T03:18:06;101715.28;;;14.37;100.00
16194;BME280;8204;53.582;10.080;2023-05-21T03:20:36;101711.00;;;14.36;100.00
16194;BME280;8204;53.582;10.080;2023-05-21T03:23:09;101708.84;;;14.32;100.00
16194;BME280;8204;53.582;10.080;2023-05-21T03:25:38;101706.53;;;14.29;100.00
16194;BME280;8204;53.582;10.080;2023-05-21T03:28:07;101703.72;;;14.30;100.00
16194;BME280;8204;53.582;10.080;2023-05-21T03:30:37;101700.41;;;14.28;100.00
16194;BME280;8204;53.582;10.080;2023-05-21T03:33:08;101701.44;;;14.27;100.00
16194;BME280;8204;53.582;10.080;2023-05-21T03:35:37;101692.84;;;14.25;100.00
16194;BME280;8204;53.582;10.080;2023-05-21T03:38:06;101686.06;;;14.23;100.00
16194;BME280;8204;53.582;10.080;2023-05-21T03:40:34;101684.41;;;14.22;100.00
16194;BME280;8204;53.582;10.080;2023-05-21T03:43:03;101682.75;;;14.21;100.00
16194;BME280;8204;53.582;10.080;2023-05-21T03:45:32;101688.84;;;14.21;100.00
16194;BME280;8204;53.582;10.080;2023-05-21T03:48:01;101684.25;;;14.23;100.00
16194;BME280;8204;53.582;10.080;2023-05-21T03:50:32;101673.53;;;14.25;100.00
16194;BME280;8204;53.582;10.080;2023-05-21T03:53:01;101665.50;;;14.26;100.00
16194;BME280;8204;53.582;10.080;2023-05-21T03:55:30;101670.09;;;14.24;100.00
16194;BME280;8204;53.582;10.080;2023-05-21T03:57:59;101662.19;;;14.24;100.00
16194;BME280;8204;53.582;10.080;2023-05-21T04:00:27;101656.59;;;14.27;100.00
16194;BME280;8204;53.582;10.080;2023-05-21T04:02:57;101645.72;;;14.30;100.00
16194;BME280;8204;53.582;10.080;2023-05-21T04:05:26;101644.06;;;14.29;100.00
16194;BME280;8204;53.582;10.080;2023-05-21T04:07:57;101647.38;;;14.31;100.00
16194;BME280;8204;53.582;10.080;2023-05-21T04:10:26;101648.88;;;14.34;100.00
16194;BME280;8204;53.582;10.080;2023-05-21T04:12:55;101639.81;;;14.36;100.00
16194;BME280;8204;53.582;10.080;2023-05-21T04:15:24;101637.38;;;14.43;100.00
16194;BME280;8204;53.582;10.080;2023-05-21T04:17:53;101637.50;;;14.41;100.00
16194;BME280;8204;53.582;10.080;2023-05-21T04:20:23;101622.69;;;14.48;100.00
16194;BME280;8204;53.582;10.080;2023-05-21T04:22:52;101633.72;;;14.52;100.00
16194;BME280;8204;53.582;10.080;2023-05-21T04:25:24;101637.03;;;14.54;100.00
16194;BME280;8204;53.582;10.080;2023-05-21T04:27:52;101631.13;;;14.59;100.00
16194;BME280;8204;53.582;10.080;2023-05-21T04:30:21;101633.28;;;14.64;100.00
16194;BME280;8204;53.582;10.080;2023-05-21T04:32:50;101632.13;;;14.66;100.00
16194;BME280;8204;53.582;10.080;2023-05-21T04:35:19;101628.16;;;14.70;100.00
16194;BME280;8204;53.582;10.080;2023-05-21T04:37:48;101632.47;;;14.79;100.00
16194;BME280;8204;53.582;10.080;2023-05-21T04:40:19;101631.00;;;14.85;100.00
16194;BME280;8204;53.582;10.080;2023-05-21T04:42:51;101631.31;;;14.90;100.00
16194;BME280;8204;53.582;10.080;2023-05-21T04:45:20;101630.16;;;14.92;100.00
16194;BME280;8204;53.582;10.080;2023-05-21T04:47:49;101635.63;;;14.99;100.00
16194;BME280;8204;53.582;10.080;2023-05-21T04:50:18;101635.09;;;15.03;100.00
16194;BME280;8204;53.582;10.080;2023-05-21T04:52:48;101637.09;;;15.09;100.00
16194;BME280;8204;53.582;10.080;2023-05-21T04:55:19;101639.22;;;15.14;100.00
16194;BME280;8204;53.582;10.080;2023-05-21T04:57:50;101644.34;;;15.15;100.00
16194;BME280;8204;53.582;10.080;2023-05-21T05:00:20;101631.78;;;15.17;100.00
16194;BME280;8204;53.582;10.080;2023-05-21T05:02:50;101639.41;;;15.20;100.00
16194;BME280;8204;53.582;10.080;2023-05-21T05:05:19;101641.84;;;15.22;100.00
16194;BME280;8204;53.582;10.080;2023-05-21T05:07:47;101637.28;;;15.24;100.00
16194;BME280;8204;53.582;10.080;2023-05-21T05:10:16;101641.03;;;15.29;100.00
16194;BME280;8204;53.582;10.080;2023-05-21T05:12:45;101626.53;;;15.33;100.00
16194;BME280;8204;53.582;10.080;2023-05-21T05:15:17;101636.59;;;15.37;100.00
16194;BME280;8204;53.582;10.080;2023-05-21T05:17:46;101637.25;;;15.39;100.00
16194;BME280;8204;53.582;10.080;2023-05-21T05:20:15;101628.31;;;15.40;100.00
16194;BME280;8204;53.582;10.080;2023-05-21T05:22:44;101628.66;;;15.45;100.00
16194;BME280;8204;53.582;10.080;2023-05-21T05:25:13;101630.97;;;15.48;100.00
16194;BME280;8204;53.582;10.080;2023-05-21T05:27:42;101629.00;;;15.50;100.00
16194;BME280;8204;53.582;10.080;2023-05-21T05:30:12;101632.25;;;15.52;100.00
16194;BME280;8204;53.582;10.080;2023-05-21T05:32:44;101624.50;;;15.51;100.00
16194;BME280;8204;53.582;10.080;2023-05-21T05:35:13;101628.50;;;15.55;100.00
16194;BME280;8204;53.582;10.080;2023-05-21T05:37:42;101625.97;;;15.61;100.00
16194;BME280;8204;53.582;10.080;2023-05-21T05:40:11;101632.56;;;15.65;100.00
16194;BME280;8204;53.582;10.080;2023-05-21T05:42:40;101625.78;;;15.71;100.00
16194;BME280;8204;53.582;10.080;2023-05-21T05:45:10;101628.72;;;15.76;100.00
16194;BME280;8204;53.582;10.080;2023-05-21T05:47:39;101623.25;;;15.85;100.00
16194;BME280;8204;53.582;10.080;2023-05-21T05:50:10;101628.88;;;15.90;100.00
16194;BME280;8204;53.582;10.080;2023-05-21T05:52:39;101627.00;;;15.99;100.00
16194;BME280;8204;53.582;10.080;2023-05-21T05:55:09;101631.09;;;16.09;100.00
16194;BME280;8204;53.582;10.080;2023-05-21T05:57:38;101632.69;;;16.18;100.00
16194;BME280;8204;53.582;10.080;2023-05-21T06:00:08;101624.41;;;16.21;100.00
16194;BME280;8204;53.582;10.080;2023-05-21T06:02:38;101626.88;;;16.30;100.00
16194;BME280;8204;53.582;10.080;2023-05-21T06:05:09;101628.50;;;16.39;100.00
16194;BME280;8204;53.582;10.080;2023-05-21T06:07:39;101633.09;;;16.45;100.00
16194;BME280;8204;53.582;10.080;2023-05-21T06:10:09;101624.06;;;16.54;100.00
16194;BME280;8204;53.582;10.080;2023-05-21T06:12:38;101631.78;;;16.64;100.00
16194;BME280;8204;53.582;10.080;2023-05-21T06:15:08;101631.72;;;16.72;100.00
16194;BME280;8204;53.582;10.080;2023-05-21T06:17:37;101641.28;;;16.81;100.00
16194;BME280;8204;53.582;10.080;2023-05-21T06:20:10;101623.03;;;16.85;100.00
16194;BME280;8204;53.582;10.080;2023-05-21T06:22:39;101632.56;;;16.94;100.00
16194;BME280;8204;53.582;10.080;2023-05-21T06:25:08;101619.88;;;17.04;100.00
16194;BME280;8204;53.582;10.080;2023-05-21T06:27:37;101628.03;;;17.17;100.00
16194;BME280;8204;53.582;10.080;2023-05-21T06:30:07;101631.63;;;17.24;100.00
16194;BME280;8204;53.582;10.080;2023-05-21T06:32:36;101624.09;;;17.36;100.00
16194;BME280;8204;53.582;10.080;2023-05-21T06:35:06;101621.19;;;17.45;100.00
16194;BME280;8204;53.582;10.080;2023-05-21T06:37:37;101622.13;;;17.52;100.00
16194;BME280;8204;53.582;10.080;2023-05-21T06:40:07;101626.50;;;17.59;100.00
16194;BME280;8204;53.582;10.080;2023-05-21T06:42:36;101637.22;;;17.66;100.00
16194;BME280;8204;53.582;10.080;2023-05-21T06:45:06;101640.78;;;17.73;100.00
16194;BME280;8204;53.582;10.080;2023-05-21T06:47:35;101626.78;;;17.79;100.00
16194;BME280;8204;53.582;10.080;2023-05-21T06:50:04;101631.34;;;17.85;100.00
16194;BME280;8204;53.582;10.080;2023-05-21T06:52:39;101637.19;;;17.95;100.00
16194;BME280;8204;53.582;10.080;2023-05-21T06:55:08;101632.78;;;18.02;100.00
16194;BME280;8204;53.582;10.080;2023-05-21T06:57:37;101625.72;;;18.09;100.00
16194;BME280;8204;53.582;10.080;2023-05-21T07:00:07;101628.47;;;18.15;100.00
16194;BME280;8204;53.582;10.080;2023-05-21T07:02:37;101626.75;;;18.22;100.00
16194;BME280;8204;53.582;10.080;2023-05-21T07:05:06;101628.47;;;18.30;100.00
16194;BME280;8204;53.582;10.080;2023-05-21T07:07:35;101626.72;;;18.36;100.00
16194;BME280;8204;53.582;10.080;2023-05-21T07:33:33;101607.84;;;19.08;100.00
16194;BME280;8204;53.582;10.080;2023-05-21T07:36:02;101621.00;;;19.16;100.00
16194;BME280;8204;53.582;10.080;2023-05-21T07:38:31;101616.56;;;19.23;100.00
16194;BME280;8204;53.582;10.080;2023-05-21T07:41:00;101603.94;;;19.32;100.00
16194;BME280;8204;53.582;10.080;2023-05-21T07:43:30;101607.09;;;19.42;100.00
16194;BME280;8204;53.582;10.080;2023-05-21T07:45:59;101602.44;;;19.50;100.00
16194;BME280;8204;53.582;10.080;2023-05-21T07:48:27;101605.31;;;19.55;100.00
16194;BME280;8204;53.582;10.080;2023-05-21T07:50:59;101599.22;;;19.61;100.00
16194;BME280;8204;53.582;10.080;2023-05-21T07:53:28;101602.34;;;19.71;100.00
16194;BME280;8204;53.582;10.080;2023-05-21T07:55:58;101602.16;;;19.79;100.00
16194;BME280;8204;53.582;10.080;2023-05-21T07:58:27;101608.53;;;19.84;100.00
16194;BME280;8204;53.582;10.080;2023-05-21T08:00:55;101607.00;;;19.96;100.00
16194;BME280;8204;53.582;10.080;2023-05-21T08:03:25;101606.19;;;20.02;100.00
16194;BME280;8204;53.582;10.080;2023-05-21T08:05:55;101604.81;;;20.13;100.00
16194;BME280;8204;53.582;10.080;2023-05-21T08:08:27;101602.19;;;20.19;100.00
16194;BME280;8204;53.582;10.080;2023-05-21T08:10:56;101607.75;;;20.31;100.00
16194;BME280;8204;53.582;10.080;2023-05-21T08:13:24;101608.56;;;20.38;100.00
16194;BME280;8204;53.582;10.080;2023-05-21T08:15:53;101608.59;;;20.44;100.00
16194;BME280;8204;53.582;10.080;2023-05-21T08:18:22;101607.41;;;20.53;100.00
16194;BME280;8204;53.582;10.080;2023-05-21T08:20:51;101606.59;;;20.59;100.00
16194;BME280;8204;53.582;10.080;2023-05-21T08:23:29;101598.00;;;20.63;100.00
16194;BME280;8204;53.582;10.080;2023-05-21T08:25:57;101601.47;;;20.70;100.00
16194;BME280;8204;53.582;10.080;2023-05-21T08:28:26;101592.72;;;20.76;100.00
16194;BME280;8204;53.582;10.080;2023-05-21T08:30:55;101598.84;;;20.83;100.00
16194;BME280;8204;53.582;10.080;2023-05-21T08:33:24;101595.19;;;20.91;100.00
16194;BME280;8204;53.582;10.080;2023-05-21T08:35:53;101598.66;;;20.98;100.00
16194;BME280;8204;53.582;10.080;2023-05-21T08:38:21;101599.66;;;21.03;100.00
16194;BME280;8204;53.582;10.080;2023-05-21T08:40:53;101600.91;;;21.14;100.00
16194;BME280;8204;53.582;10.080;2023-05-21T08:43:23;101599.06;;;21.21;100.00
16194;BME280;8204;53.582;10.080;2023-05-21T08:45:56;101601.72;;;21.27;100.00
16194;BME280;8204;53.582;10.080;2023-05-21T08:48:29;101591.88;;;21.27;100.00
16194;BME280;8204;53.582;10.080;2023-05-21T08:50:59;101598.63;;;21.30;100.00
16194;BME280;8204;53.582;10.080;2023-05-21T08:53:29;101587.97;;;21.36;100.00
16194;BME280;8204;53.582;10.080;2023-05-21T08:56:03;101594.94;;;21.44;100.00
16194;BME280;8204;53.582;10.080;2023-05-21T08:58:32;101596.56;;;21.51;100.00
16194;BME280;8204;53.582;10.080;2023-05-21T09:01:03;101593.50;;;21.54;100.00
16194;BME280;8204;53.582;10.080;2023-05-21T09:03:32;101592.66;;;21.60;100.00
16194;BME280;8204;53.582;10.080;2023-05-21T09:06:04;101585.91;;;21.64;100.00
16194;BME280;8204;53.582;10.080;2023-05-21T09:08:34;101585.66;;;21.72;100.00
16194;BME280;8204;53.582;10.080;2023-05-21T09:11:09;101585.25;;;21.75;100.00
16194;BME280;8204;53.582;10.080;2023-05-21T09:13:39;101593.66;;;21.79;100.00
16194;BME280;8204;53.582;10.080;2023-05-21T09:16:09;101589.69;;;21.88;100.00
16194;BME280;8204;53.582;10.080;2023-05-21T09:18:38;101594.41;;;21.92;100.00
16194;BME280;8204;53.582;10.080;2023-05-21T09:21:22;101595.81;;;22.01;100.00
16194;BME280;8204;53.582;10.080;2023-05-21T09:23:54;101597.00;;;22.05;100.00
16194;BME280;8204;53.582;10.080;2023-05-21T09:26:26;101590.25;;;22.09;100.00
16194;BME280;8204;53.582;10.080;2023-05-21T09:28:56;101599.03;;;22.16;100.00
16194;BME280;8204;53.582;10.080;2023-05-21T09:31:25;101593.03;;;22.20;100.00
16194;BME280;8204;53.582;10.080;2023-05-21T09:33:54;101593.66;;;22.29;100.00
16194;BME280;8204;53.582;10.080;2023-05-21T09:36:23;101585.81;;;22.34;100.00
16194;BME280;8204;53.582;10.080;2023-05-21T09:38:54;101597.06;;;22.42;100.00
16194;BME280;8204;53.582;10.080;2023-05-21T09:41:33;101600.09;;;22.52;100.00
16194;BME280;8204;53.582;10.080;2023-05-21T09:44:03;101594.09;;;22.57;100.00
16194;BME280;8204;53.582;10.080;2023-05-21T09:46:38;101597.94;;;22.67;100.00
16194;BME280;8204;53.582;10.080;2023-05-21T09:49:21;101599.09;;;22.77;100.00
16194;BME280;8204;53.582;10.080;2023-05-21T09:51:54;101597.81;;;22.86;100.00
16194;BME280;8204;53.582;10.080;2023-05-21T09:54:23;101594.00;;;23.00;100.00
16194;BME280;8204;53.582;10.080;2023-05-21T09:56:54;101595.38;;;23.09;100.00
16194;BME280;8204;53.582;10.080;2023-05-21T09:59:24;101595.47;;;23.21;100.00
16194;BME280;8204;53.582;10.080;2023-05-21T10:02:02;101590.50;;;23.24;100.00
16194;BME280;8204;53.582;10.080;2023-05-21T10:04:42;101587.97;;;23.29;100.00
16194;BME280;8204;53.582;10.080;2023-05-21T10:07:12;101592.00;;;23.38;100.00
16194;BME280;8204;53.582;10.080;2023-05-21T10:09:43;101583.25;;;23.49;100.00
16194;BME280;8204;53.582;10.080;2023-05-21T10:12:17;101583.94;;;23.62;100.00
16194;BME280;8204;53.582;10.080;2023-05-21T10:14:50;101585.91;;;23.73;100.00
16194;BME280;8204;53.582;10.080;2023-05-21T10:17:20;101579.22;;;23.82;100.00
16194;BME280;8204;53.582;10.080;2023-05-21T10:19:51;101581.13;;;23.93;100.00
16194;BME280;8204;53.582;10.080;2023-05-21T10:22:23;101582.59;;;24.07;100.00
16194;BME280;8204;53.582;10.080;2023-05-21T10:24:53;101578.91;;;24.20;100.00
16194;BME280;8204;53.582;10.080;2023-05-21T10:27:25;101574.88;;;24.28;100.00
16194;BME280;8204;53.582;10.080;2023-05-21T10:29:56;101569.78;;;24.38;100.00
16194;BME280;8204;53.582;10.080;2023-05-21T10:32:25;101564.28;;;24.51;100.00
16194;BME280;8204;53.582;10.080;2023-05-21T10:34:55;101564.53;;;24.61;100.00
16194;BME280;8204;53.582;10.080;2023-05-21T10:37:25;101561.75;;;24.68;100.00
16194;BME280;8204;53.582;10.080;2023-05-21T10:39:55;101559.56;;;24.76;100.00
16194;BME280;8204;53.582;10.080;2023-05-21T10:42:48;101561.31;;;24.82;100.00
16194;BME280;8204;53.582;10.080;2023-05-21T10:45:25;101560.38;;;24.88;100.00
16194;BME280;8204;53.582;10.080;2023-05-21T10:48:12;101557.72;;;25.00;100.00
16194;BME280;8204;53.582;10.080;2023-05-21T10:50:56;101556.34;;;25.08;100.00
16194;BME280;8204;53.582;10.080;2023-05-21T10:53:45;101545.59;;;25.20;100.00
16194;BME280;8204;53.582;10.080;2023-05-21T10:56:21;101553.31;;;25.28;100.00
16194;BME280;8204;53.582;10.080;2023-05-21T10:59:10;101549.56;;;25.40;100.00
16194;BME280;8204;53.582;10.080;2023-05-21T11:01:48;101549.78;;;25.50;100.00
16194;BME280;8204;53.582;10.080;2023-05-21T11:04:21;101549.97;;;25.60;100.00
16194;BME280;8204;53.582;10.080;2023-05-21T11:06:50;101553.59;;;25.66;100.00
16194;BME280;8204;53.582;10.080;2023-05-21T11:09:19;101548.13;;;25.72;100.00
16194;BME280;8204;53.582;10.080;2023-05-21T11:11:49;101550.34;;;25.75;100.00
16194;BME280;8204;53.582;10.080;2023-05-21T11:14:29;101548.69;;;25.85;100.00
16194;BME280;8204;53.582;10.080;2023-05-21T11:17:01;101555.06;;;25.96;100.00
16194;BME280;8204;53.582;10.080;2023-05-21T11:19:35;101550.72;;;26.06;100.00
16194;BME280;8204;53.582;10.080;2023-05-21T11:22:06;101546.69;;;26.20;100.00
16194;BME280;8204;53.582;10.080;2023-05-21T11:24:37;101548.50;;;26.31;100.00
16194;BME280;8204;53.582;10.080;2023-05-21T11:27:08;101545.78;;;26.43;100.00
16194;BME280;8204;53.582;10.080;2023-05-21T11:29:42;101550.34;;;26.58;100.00
16194;BME280;8204;53.582;10.080;2023-05-21T11:32:13;101538.78;;;26.74;100.00
16194;BME280;8204;53.582;10.080;2023-05-21T11:34:46;101545.47;;;26.88;100.00
16194;BME280;8204;53.582;10.080;2023-05-21T11:37:29;101543.03;;;27.03;100.00
16194;BME280;8204;53.582;10.080;2023-05-21T11:40:23;101545.63;;;27.15;100.00
16194;BME280;8204;53.582;10.080;2023-05-21T11:42:56;101550.09;;;27.26;100.00
16194;BME280;8204;53.582;10.080;2023-05-21T11:45:31;101545.44;;;27.37;100.00
16194;BME280;8204;53.582;10.080;2023-05-21T11:48:00;101543.44;;;27.49;100.00
16194;BME280;8204;53.582;10.080;2023-05-21T11:50:30;101542.59;;;27.65;100.00
16194;BME280;8204;53.582;10.080;2023-05-21T11:52:59;101537.34;;;27.75;100.00
16194;BME280;8204;53.582;10.080;2023-05-21T11:55:28;101546.59;;;27.84;100.00
16194;BME280;8204;53.582;10.080;2023-05-21T11:57:58;101553.16;;;27.93;100.00
16194;BME280;8204;53.582;10.080;2023-05-21T12:00:29;101545.22;;;28.03;100.00
16194;BME280;8204;53.582;10.080;2023-05-21T12:02:59;101550.69;;;28.13;100.00
16194;BME280;8204;53.582;10.080;2023-05-21T12:05:28;101537.25;;;28.18;100.00
16194;BME280;8204;53.582;10.080;2023-05-21T12:07:57;101543.56;;;28.23;100.00
16194;BME280;8204;53.582;10.080;2023-05-21T12:10:26;101545.06;;;28.36;100.00
16194;BME280;8204;53.582;10.080;2023-05-21T12:12:55;101545.91;;;28.41;100.00
16194;BME280;8204;53.582;10.080;2023-05-21T12:15:25;101536.28;;;28.50;100.00
16194;BME280;8204;53.582;10.080;2023-05-21T12:17:57;101541.44;;;28.57;100.00
16194;BME280;8204;53.582;10.080;2023-05-21T12:20:26;101533.63;;;28.55;100.00
16194;BME280;8204;53.582;10.080;2023-05-21T12:22:58;101535.28;;;28.61;100.00
16194;BME280;8204;53.582;10.080;2023-05-21T12:25:27;101531.59;;;28.72;100.00
16194;BME280;8204;53.582;10.080;2023-05-21T12:27:56;101528.50;;;28.85;100.00
16194;BME280;8204;53.582;10.080;2023-05-21T12:30:28;101527.47;;;28.91;100.00
16194;BME280;8204;53.582;10.080;2023-05-21T12:33:00;101531.28;;;29.00;100.00
16194;BME280;8204;53.582;10.080;2023-05-21T12:35:29;101531.66;;;29.13;100.00
16194;BME280;8204;53.582;10.080;2023-05-21T12:37:59;101532.25;;;29.20;100.00
16194;BME280;8204;53.582;10.080;2023-05-21T12:40:35;101541.19;;;29.26;100.00
16194;BME280;8204;53.582;10.080;2023-05-21T12:43:05;101523.09;;;29.26;100.00
16194;BME280;8204;53.582;10.080;2023-05-21T12:45:34;101524.72;;;29.27;100.00
16194;BME280;8204;53.582;10.080;2023-05-21T12:48:06;101526.31;;;29.23;100.00
16194;BME280;8204;53.582;10.080;2023-05-21T12:50:40;101529.28;;;29.22;100.00
16194;BME280;8204;53.582;10.080;2023-05-21T12:53:09;101530.03;;;29.12;100.00
16194;BME280;8204;53.582;10.080;2023-05-21T12:55:38;101523.28;;;29.10;100.00
16194;BME280;8204;53.582;10.080;2023-05-21T12:58:12;101522.16;;;29.06;100.00
16194;BME280;8204;53.582;10.080;2023-05-21T13:00:42;101522.91;;;28.96;100.00
16194;BME280;8204;53.582;10.080;2023-05-21T13:03:14;101520.69;;;28.88;100.00
16194;BME280;8204;53.582;10.080;2023-05-21T13:05:43;101519.56;;;28.80;100.00
16194;BME280;8204;53.582;10.080;2023-05-21T13:08:12;101516.84;;;28.80;100.00
16194;BME280;8204;53.582;10.080;2023-05-21T13:10:41;101522.19;;;28.75;100.00
16194;BME280;8204;53.582;10.080;2023-05-21T13:13:10;101519.44;;;28.70;100.00
16194;BME280;8204;53.582;10.080;2023-05-21T13:15:39;101515.34;;;28.62;100.00
16194;BME280;8204;53.582;10.080;2023-05-21T13:18:08;101516.69;;;28.65;100.00
16194;BME280;8204;53.582;10.080;2023-05-21T13:20:40;101512.97;;;28.71;100.00